Electra — WQ5910 — position and weather

sailwx.info

Track history (hours):
 
Tides and Currents Weather Stations Pressure Air Temp Water Temp Dewpoint Dewpoint Depression Visibility Wind Speed Wind Dir Waves Ship Positions

Electra

Owner: HELGREN, RICHARD F, OCEANSIDE, CA. More information available from US FCC via Universal Licensing System and Coast Guard Vessel Documentation Center.

Last reported at 2018-Feb-18 23:18 UTC. Time now 2018-Feb-19 11:59 UTC.
Position N 33°12' W 117°23'.

Length 24 m.

Type: Wing in ground effect craft. MMSI: 367394780.

Date/timePositionNaut miles runAvg speedWind from/ knotsBaromVisibWave heightAir tempDewpointWater temp
2018-Feb-18 23:18N 33°12' W 117°23'2 6.8
2018-Feb-18 23:00N 33°13' W 117°26'5 9.5
2018-Feb-18 22:30N 33°15' W 117°31'4 7.4
2018-Feb-18 22:01N 33°17' W 117°35'0 0.0
2018-Feb-18 21:30N 33°17' W 117°35'0 0.0
2018-Feb-18 20:59N 33°17' W 117°35'0 0.0
2018-Feb-18 20:30N 33°17' W 117°35'0 0.1
2018-Feb-18 19:58N 33°17' W 117°35'1 3.1
2018-Feb-18 19:30N 33°16' W 117°33'1 2.7
2018-Feb-18 19:00N 33°15' W 117°32'510.2
2018-Feb-18 18:30N 33°13' W 117°27'3 3.1
2018-Feb-18 17:38N 33°12' W 117°23'0 1.3
2018-Feb-18 17:28N 33°12' W 117°24'0 0.0
2018-Feb-17 22:11N 33°12' W 117°24'0 0.4
2018-Feb-17 21:42N 33°12' W 117°23'1 6.6
2018-Feb-17 21:30N 33°12' W 117°25'5 9.4
2018-Feb-17 21:00N 33°13' W 117°31'1 2.0
2018-Feb-17 20:30N 33°13' W 117°32'4 8.1
2018-Feb-17 20:00N 33°13' W 117°27'3 1.2
2018-Feb-17 17:39N 33°12' W 117°23'1 4.1
2018-Feb-17 17:30N 33°12' W 117°24'2 3.7
2018-Feb-17 17:00N 33°10' W 117°23'2 2.8
2018-Feb-17 16:17N 33°12' W 117°23'0 0.0
2018-Feb-17 00:16N 33°12' W 117°24'0 0.1
2018-Feb-16 23:26N 33°12' W 117°24'2 4.6
2018-Feb-16 23:00N 33°12' W 117°26'0 0.0
2018-Feb-16 22:30N 33°12' W 117°26'1 2.0
2018-Feb-16 22:00N 33°13' W 117°27'5 9.7
2018-Feb-16 21:30N 33°15' W 117°32'3 5.5
2018-Feb-16 21:00N 33°17' W 117°35'0 0.0
2018-Feb-16 20:30N 33°17' W 117°35'0 0.0
2018-Feb-16 19:59N 33°17' W 117°35'0 0.0
2018-Feb-16 19:30N 33°17' W 117°35'3 5.3
2018-Feb-16 19:00N 33°15' W 117°32'510.0
2018-Feb-16 18:30N 33°13' W 117°27'3 3.4
2018-Feb-16 17:38N 33°12' W 117°24'0 0.7
2018-Feb-16 17:28N 33°12' W 117°24'2 0.1
2018-Feb-16 01:44N 33°12' W 117°26'0 1.4
2018-Feb-16 01:30N 33°12' W 117°26'0 0.0
2018-Feb-16 01:00N 33°12' W 117°26'0 0.0
2018-Feb-16 00:30N 33°12' W 117°26'1 2.9
2018-Feb-16 00:00N 33°11' W 117°25'0 0.0
2018-Feb-15 23:30N 33°11' W 117°25'0 0.1
2018-Feb-15 23:01N 33°11' W 117°25'2 3.7
2018-Feb-15 22:30N 33°10' W 117°23'0 0.0
2018-Feb-15 22:00N 33°10' W 117°23'0 0.0
2018-Feb-15 21:30N 33°10' W 117°23'3 5.0
2018-Feb-15 21:00N 33°12' W 117°24'0 0.9
2018-Feb-15 20:31N 33°12' W 117°24'1 2.1
2018-Feb-15 20:01N 33°11' W 117°25'3 5.1
2018-Feb-15 19:30N 33°11' W 117°28'2 4.7
2018-Feb-15 19:01N 33°13' W 117°27'3 3.0
2018-Feb-15 17:58N 33°12' W 117°23'1 0.0
2018-Feb-14 20:27N 33°12' W 117°24'3 7.0
2018-Feb-14 20:00N 33°09' W 117°23'2 4.1
2018-Feb-14 19:30N 33°11' W 117°25'2 4.2
2018-Feb-14 19:00N 33°12' W 117°27'2 0.0
2018-Feb-12 23:05N 33°12' W 117°24'1 7.4
2018-Feb-12 23:00N 33°12' W 117°24'2 4.0
2018-Feb-12 22:30N 33°10' W 117°23'0 0.0
2018-Feb-12 22:00N 33°10' W 117°23'0 0.0
2018-Feb-12 21:30N 33°10' W 117°23'0 0.0
2018-Feb-12 21:00N 33°10' W 117°23'0 0.0
2018-Feb-12 20:30N 33°10' W 117°23'0 0.0
2018-Feb-12 20:00N 33°10' W 117°23'0 0.3
2018-Feb-12 19:30N 33°10' W 117°23'3 6.2
2018-Feb-12 19:00N 33°12' W 117°26'0 0.1
2018-Feb-12 18:30N 33°12' W 117°26'2 1.9
2018-Feb-12 17:26N 33°12' W 117°23'0 0.0
2018-Feb-11 23:25N 33°12' W 117°23'2 5.0
2018-Feb-11 23:00N 33°13' W 117°26'5 9.9
2018-Feb-11 22:30N 33°15' W 117°31'3 6.8
2018-Feb-11 22:00N 33°17' W 117°35'0 0.0
2018-Feb-11 21:30N 33°17' W 117°35'0 0.0
2018-Feb-11 21:00N 33°17' W 117°35'0 0.0
2018-Feb-11 20:30N 33°17' W 117°35'0 0.0
2018-Feb-11 20:00N 33°17' W 117°35'0 0.0
2018-Feb-11 19:30N 33°17' W 117°35'2 3.4
2018-Feb-11 19:00N 33°16' W 117°33'5 9.9
2018-Feb-11 18:30N 33°14' W 117°28'4 4.0
2018-Feb-11 17:34N 33°12' W 117°23'0 3.3
2018-Feb-11 17:30N 33°12' W 117°24'0 0.0
2018-Feb-10 23:41N 33°12' W 117°24'0 0.5
2018-Feb-10 23:23N 33°12' W 117°23'3 6.6
2018-Feb-10 23:00N 33°12' W 117°26'5 9.7
2018-Feb-10 22:30N 33°15' W 117°31'3 6.6
2018-Feb-10 22:00N 33°17' W 117°35'0 0.0
2018-Feb-10 21:30N 33°17' W 117°35'0 0.1
2018-Feb-10 21:00N 33°17' W 117°35'0 0.1
2018-Feb-10 20:30N 33°17' W 117°35'0 0.0
2018-Feb-10 20:00N 33°17' W 117°35'0 0.0
2018-Feb-10 19:30N 33°17' W 117°35'1 2.8
2018-Feb-10 19:00N 33°16' W 117°33'5 9.9
2018-Feb-10 18:30N 33°14' W 117°28'4 3.5
2018-Feb-10 17:21N 33°12' W 117°23'  
Track history (hours):
 
Tides and Currents Weather Stations Pressure Air Temp Water Temp Dewpoint Dewpoint Depression Visibility Wind Speed Wind Dir Waves Ship Positions

Electra

Owner: HELGREN, RICHARD F, OCEANSIDE, CA. More information available from US FCC via Universal Licensing System and Coast Guard Vessel Documentation Center.

Last reported at 2018-Feb-18 23:18 UTC. Time now 2018-Feb-19 11:59 UTC.
Position N 33°12' W 117°23'.

Length 24 m.

Type: Wing in ground effect craft. MMSI: 367394780.

Date/timePositionNaut miles runAvg speedWind from/ knotsBaromVisibWave heightAir tempDewpointWater temp
2018-Feb-18 23:18N 33°12' W 117°23'2 6.8
2018-Feb-18 23:00N 33°13' W 117°26'5 9.5
2018-Feb-18 22:30N 33°15' W 117°31'4 7.4
2018-Feb-18 22:01N 33°17' W 117°35'0 0.0
2018-Feb-18 21:30N 33°17' W 117°35'0 0.0
2018-Feb-18 20:59N 33°17' W 117°35'0 0.0
2018-Feb-18 20:30N 33°17' W 117°35'0 0.1
2018-Feb-18 19:58N 33°17' W 117°35'1 3.1
2018-Feb-18 19:30N 33°16' W 117°33'1 2.7
2018-Feb-18 19:00N 33°15' W 117°32'510.2
2018-Feb-18 18:30N 33°13' W 117°27'3 3.1
2018-Feb-18 17:38N 33°12' W 117°23'0 1.3
2018-Feb-18 17:28N 33°12' W 117°24'0 0.0
2018-Feb-17 22:11N 33°12' W 117°24'0 0.4
2018-Feb-17 21:42N 33°12' W 117°23'1 6.6
2018-Feb-17 21:30N 33°12' W 117°25'5 9.4
2018-Feb-17 21:00N 33°13' W 117°31'1 2.0
2018-Feb-17 20:30N 33°13' W 117°32'4 8.1
2018-Feb-17 20:00N 33°13' W 117°27'3 1.2
2018-Feb-17 17:39N 33°12' W 117°23'1 4.1
2018-Feb-17 17:30N 33°12' W 117°24'2 3.7
2018-Feb-17 17:00N 33°10' W 117°23'2 2.8
2018-Feb-17 16:17N 33°12' W 117°23'0 0.0
2018-Feb-17 00:16N 33°12' W 117°24'0 0.1
2018-Feb-16 23:26N 33°12' W 117°24'2 4.6
2018-Feb-16 23:00N 33°12' W 117°26'0 0.0
2018-Feb-16 22:30N 33°12' W 117°26'1 2.0
2018-Feb-16 22:00N 33°13' W 117°27'5 9.7
2018-Feb-16 21:30N 33°15' W 117°32'3 5.5
2018-Feb-16 21:00N 33°17' W 117°35'0 0.0
2018-Feb-16 20:30N 33°17' W 117°35'0 0.0
2018-Feb-16 19:59N 33°17' W 117°35'0 0.0
2018-Feb-16 19:30N 33°17' W 117°35'3 5.3
2018-Feb-16 19:00N 33°15' W 117°32'510.0
2018-Feb-16 18:30N 33°13' W 117°27'3 3.4
2018-Feb-16 17:38N 33°12' W 117°24'0 0.7
2018-Feb-16 17:28N 33°12' W 117°24'2 0.1
2018-Feb-16 01:44N 33°12' W 117°26'0 1.4
2018-Feb-16 01:30N 33°12' W 117°26'0 0.0
2018-Feb-16 01:00N 33°12' W 117°26'0 0.0
2018-Feb-16 00:30N 33°12' W 117°26'1 2.9
2018-Feb-16 00:00N 33°11' W 117°25'0 0.0
2018-Feb-15 23:30N 33°11' W 117°25'0 0.1
2018-Feb-15 23:01N 33°11' W 117°25'2 3.7
2018-Feb-15 22:30N 33°10' W 117°23'0 0.0
2018-Feb-15 22:00N 33°10' W 117°23'0 0.0
2018-Feb-15 21:30N 33°10' W 117°23'3 5.0
2018-Feb-15 21:00N 33°12' W 117°24'0 0.9
2018-Feb-15 20:31N 33°12' W 117°24'1 2.1
2018-Feb-15 20:01N 33°11' W 117°25'3 5.1
2018-Feb-15 19:30N 33°11' W 117°28'2 4.7
2018-Feb-15 19:01N 33°13' W 117°27'3 3.0
2018-Feb-15 17:58N 33°12' W 117°23'1 0.0
2018-Feb-14 20:27N 33°12' W 117°24'3 7.0
2018-Feb-14 20:00N 33°09' W 117°23'2 4.1
2018-Feb-14 19:30N 33°11' W 117°25'2 4.2
2018-Feb-14 19:00N 33°12' W 117°27'2 0.0
2018-Feb-12 23:05N 33°12' W 117°24'1 7.4
2018-Feb-12 23:00N 33°12' W 117°24'2 4.0
2018-Feb-12 22:30N 33°10' W 117°23'0 0.0
2018-Feb-12 22:00N 33°10' W 117°23'0 0.0
2018-Feb-12 21:30N 33°10' W 117°23'0 0.0
2018-Feb-12 21:00N 33°10' W 117°23'0 0.0
2018-Feb-12 20:30N 33°10' W 117°23'0 0.0
2018-Feb-12 20:00N 33°10' W 117°23'0 0.3
2018-Feb-12 19:30N 33°10' W 117°23'3 6.2
2018-Feb-12 19:00N 33°12' W 117°26'0 0.1
2018-Feb-12 18:30N 33°12' W 117°26'2 1.9
2018-Feb-12 17:26N 33°12' W 117°23'0 0.0
2018-Feb-11 23:25N 33°12' W 117°23'2 5.0
2018-Feb-11 23:00N 33°13' W 117°26'5 9.9
2018-Feb-11 22:30N 33°15' W 117°31'3 6.8
2018-Feb-11 22:00N 33°17' W 117°35'0 0.0
2018-Feb-11 21:30N 33°17' W 117°35'0 0.0
2018-Feb-11 21:00N 33°17' W 117°35'0 0.0
2018-Feb-11 20:30N 33°17' W 117°35'0 0.0
2018-Feb-11 20:00N 33°17' W 117°35'0 0.0
2018-Feb-11 19:30N 33°17' W 117°35'2 3.4
2018-Feb-11 19:00N 33°16' W 117°33'5 9.9
2018-Feb-11 18:30N 33°14' W 117°28'4 4.0
2018-Feb-11 17:34N 33°12' W 117°23'0 3.3
2018-Feb-11 17:30N 33°12' W 117°24'0 0.0
2018-Feb-10 23:41N 33°12' W 117°24'0 0.5
2018-Feb-10 23:23N 33°12' W 117°23'3 6.6
2018-Feb-10 23:00N 33°12' W 117°26'5 9.7
2018-Feb-10 22:30N 33°15' W 117°31'3 6.6
2018-Feb-10 22:00N 33°17' W 117°35'0 0.0
2018-Feb-10 21:30N 33°17' W 117°35'0 0.1
2018-Feb-10 21:00N 33°17' W 117°35'0 0.1
2018-Feb-10 20:30N 33°17' W 117°35'0 0.0
2018-Feb-10 20:00N 33°17' W 117°35'0 0.0
2018-Feb-10 19:30N 33°17' W 117°35'1 2.8
2018-Feb-10 19:00N 33°16' W 117°33'5 9.9
2018-Feb-10 18:30N 33°14' W 117°28'4 3.5
2018-Feb-10 17:21N 33°12' W 117°23'  

Dump ship's entire track history